South Royalton, VT (05068)

10:26 AM EDT on July 29, 2016 (GMT -0400)
Quimby Mountain | | Change Station

Elev 1015 ft 43.77 °N, 72.42 °W | Updated 4 seconds ago

Scattered Clouds
Scattered Clouds
71.3 °F
Feels Like 70 °F
N
1.0
Wind Variable Wind from NE
Gusts 2.0 mph

Today
High -- | Low -- °F
--% Chance of Precip.
Yesterday
High -- | Low -- °F
Precip. -- in
Pressure 29.89 in
Visibility 10.0 miles
Clouds Scattered Clouds 5500 ft
Heat Index 70 °F
Dew Point 66 °F
Humidity 84%
Rainfall 0.00 in
Snow Depth Not available.
5:36 AM 8:16 PM
Waning Crescent, 21% visible
METAR KLEB 291353Z 00000KT 10SM SCT055 22/18 A2992 RMK AO2 RAE30 SLP121 P0002 T02170183
Pressure 29.89 in
Visibility 10.0 miles
Clouds Scattered Clouds 5500 ft
Heat Index 70 °F
Dew Point 66 °F
Humidity 84%
Rainfall 0.00 in
Snow Depth Not available.
5:36 AM 8:16 PM
Waning Crescent, 21% visible
METAR KLEB 291353Z 00000KT 10SM SCT055 22/18 A2992 RMK AO2 RAE30 SLP121 P0002 T02170183

10-Day Weather Forecast

Almanac

Astronomy

Jul. 29, 2016 Rise Set
Actual Time
Civil Twilight
Nautical Twilight
Astronomical Twilight
Moon
Length of Visible Light
Length of Day
Tomorrow will be .
, % of the Moon is Illuminated

Today's Extremes

State Highs State Lows

Community

WunderPhotos

Upload Photos

1,928,342 photos uploaded!

WunderBlog® & News

Nearby

Air Quality

  Air Quality AQ Index Pollutant
Not available.

Snow Depth

Station Depth Elevation

Earthquake Activity

City Distance Mag. Time & Date
Minimum magnitude displayed is 2.5.

Coastal Water Temperatures

Place Temperature

Stations

Nearby Weather Stations

Station Location Temp. Windchill Dew Point Humidity Wind Precip. Elev Updated Type
                   

Watches & Warnings

There are currently no watches in effect.